createdAt,value
2023-10-29T00:01:29.638Z,8.32
2023-10-29T00:03:57.026Z,8.31
2023-10-29T00:06:24.085Z,8.31
2023-10-29T00:08:50.587Z,8.29
2023-10-29T00:11:17.190Z,8.19
2023-10-29T00:13:44.319Z,8.18
2023-10-29T00:16:12.529Z,8.19
2023-10-29T00:18:39.429Z,8.19
2023-10-29T00:21:06.716Z,8.22
2023-10-29T00:23:33.938Z,8.25
2023-10-29T00:26:00.652Z,8.25
2023-10-29T00:28:27.125Z,8.15
2023-10-29T00:30:56.715Z,8.12
2023-10-29T00:33:24.400Z,8.07
2023-10-29T00:35:51.529Z,8.07
2023-10-29T00:38:18.044Z,8.02
2023-10-29T00:40:44.668Z,8.07
2023-10-29T00:43:15.506Z,7.97
2023-10-29T00:45:43.189Z,8.01
2023-10-29T00:48:11.640Z,7.99
2023-10-29T00:50:39.278Z,7.99
2023-10-29T00:53:06.516Z,8.04
2023-10-29T00:55:33.312Z,8.05
2023-10-29T00:57:59.888Z,7.97
2023-10-29T01:00:26.377Z,8.01
2023-10-29T01:02:53.033Z,7.96
2023-10-29T01:05:19.670Z,7.99
2023-10-29T01:07:46.926Z,7.89
2023-10-29T01:10:13.554Z,7.89
2023-10-29T01:12:40.192Z,7.92
2023-10-29T01:15:07.178Z,7.88
2023-10-29T01:17:33.809Z,7.91
2023-10-29T01:20:00.389Z,7.97
2023-10-29T01:22:27.088Z,8.00
2023-10-29T01:24:55.198Z,8.08
2023-10-29T01:27:22.794Z,8.06
2023-10-29T01:29:49.490Z,7.99
2023-10-29T01:32:16.007Z,7.94
2023-10-29T01:34:42.698Z,7.96
2023-10-29T01:37:09.228Z,7.89
2023-10-29T01:39:35.705Z,7.96
2023-10-29T01:42:02.320Z,7.96
2023-10-29T01:44:28.855Z,7.99
2023-10-29T01:46:55.405Z,7.97
2023-10-29T01:49:21.895Z,8.01
2023-10-29T01:51:48.404Z,8.07
2023-10-29T01:54:14.885Z,8.13
2023-10-29T01:56:41.535Z,8.13
2023-10-29T01:59:08.112Z,8.19
2023-10-29T02:01:34.647Z,8.17
2023-10-29T02:04:01.310Z,8.20
2023-10-29T02:06:27.870Z,8.24
2023-10-29T02:08:55.036Z,8.27
2023-10-29T02:11:21.539Z,8.26
2023-10-29T02:13:48.038Z,8.29
2023-10-29T02:16:14.514Z,8.28
2023-10-29T02:18:40.973Z,8.25
2023-10-29T02:21:07.982Z,8.35
2023-10-29T02:23:35.524Z,8.35
2023-10-29T02:26:02.110Z,8.28
2023-10-29T02:28:28.847Z,8.36
2023-10-29T02:30:55.415Z,8.35
2023-10-29T02:33:21.973Z,8.22
2023-10-29T02:35:48.790Z,8.10
2023-10-29T02:38:15.941Z,8.12
2023-10-29T02:40:42.507Z,8.21
2023-10-29T02:43:08.968Z,8.23
2023-10-29T02:45:35.460Z,8.21
2023-10-29T02:48:02.026Z,8.14
2023-10-29T02:50:28.642Z,8.13
2023-10-29T02:52:55.144Z,8.13
2023-10-29T02:55:21.794Z,8.10
2023-10-29T02:57:48.273Z,8.13
2023-10-29T03:00:15.279Z,8.19
2023-10-29T03:02:41.904Z,8.16
2023-10-29T03:05:11.805Z,8.23
2023-10-29T03:07:38.545Z,8.23
2023-10-29T03:10:08.187Z,8.30
2023-10-29T03:12:34.639Z,8.33
2023-10-29T03:15:01.865Z,8.34
2023-10-29T03:17:28.543Z,8.40
2023-10-29T03:19:55.097Z,8.39
2023-10-29T03:22:21.714Z,8.33
2023-10-29T03:24:48.541Z,8.42
2023-10-29T03:27:15.394Z,8.54
2023-10-29T03:29:42.073Z,8.62
2023-10-29T03:32:08.661Z,8.71
2023-10-29T03:34:35.169Z,8.75
2023-10-29T03:37:01.741Z,8.83
2023-10-29T03:39:30.779Z,8.78
2023-10-29T03:41:57.516Z,8.73
2023-10-29T03:44:24.249Z,8.74
2023-10-29T03:46:52.635Z,8.78
2023-10-29T03:49:20.073Z,8.73
2023-10-29T03:51:48.247Z,8.72
2023-10-29T03:54:14.853Z,8.72
2023-10-29T03:56:41.626Z,8.72
2023-10-29T03:59:08.206Z,8.75
2023-10-29T04:01:34.836Z,8.80
2023-10-29T04:04:03.627Z,8.94
2023-10-29T04:06:31.573Z,8.88
2023-10-29T04:08:58.045Z,8.82
2023-10-29T04:11:24.569Z,8.86
2023-10-29T04:13:51.063Z,8.86
2023-10-29T04:16:18.655Z,8.86
2023-10-29T04:18:45.242Z,8.93
2023-10-29T04:21:11.806Z,8.84
2023-10-29T04:23:38.360Z,8.85
2023-10-29T04:26:04.943Z,8.85
2023-10-29T04:28:31.462Z,8.87
2023-10-29T04:30:58.125Z,8.89
2023-10-29T04:33:25.201Z,8.93
2023-10-29T04:35:52.056Z,9.06
2023-10-29T04:38:18.533Z,8.99
2023-10-29T04:40:45.440Z,9.04
2023-10-29T04:43:11.981Z,9.05
2023-10-29T04:45:38.534Z,9.09
2023-10-29T04:48:05.378Z,9.02
2023-10-29T04:50:32.303Z,8.96
2023-10-29T04:52:59.438Z,9.02
2023-10-29T04:55:26.041Z,8.99
2023-10-29T04:57:52.518Z,8.91
2023-10-29T05:00:19.211Z,8.90
2023-10-29T05:02:45.831Z,8.81
2023-10-29T05:05:12.672Z,8.75
2023-10-29T05:07:39.243Z,8.75
2023-10-29T05:10:06.585Z,8.68
2023-10-29T05:12:33.121Z,8.62
2023-10-29T05:14:59.805Z,8.59
2023-10-29T05:17:26.308Z,8.63
2023-10-29T05:19:52.952Z,8.71
2023-10-29T05:22:19.452Z,8.69
2023-10-29T05:24:46.074Z,8.63
2023-10-29T05:27:12.631Z,8.61
2023-10-29T05:29:39.171Z,8.63
2023-10-29T05:32:06.488Z,8.66
2023-10-29T05:34:32.986Z,8.79
2023-10-29T05:36:59.520Z,8.66
2023-10-29T05:39:26.040Z,8.60
2023-10-29T05:41:52.551Z,8.51
2023-10-29T05:44:19.282Z,8.58
2023-10-29T05:46:45.846Z,8.49
2023-10-29T05:49:12.352Z,8.51
2023-10-29T05:51:39.687Z,8.48
2023-10-29T05:54:06.401Z,8.49
2023-10-29T05:56:32.951Z,8.47
2023-10-29T05:58:59.491Z,8.61
2023-10-29T06:01:26.257Z,8.63
2023-10-29T06:03:52.977Z,8.61
2023-10-29T06:06:20.715Z,8.67
2023-10-29T06:08:47.229Z,8.73
2023-10-29T06:11:13.785Z,8.86
2023-10-29T06:13:40.277Z,8.94
2023-10-29T06:16:10.302Z,9.03
2023-10-29T06:18:36.992Z,9.08
2023-10-29T06:21:04.434Z,9.08
2023-10-29T06:23:31.307Z,9.08
2023-10-29T06:25:57.988Z,9.18
2023-10-29T06:28:24.469Z,9.15
2023-10-29T06:30:51.053Z,9.12
2023-10-29T06:33:17.564Z,9.18
2023-10-29T06:35:44.186Z,9.27
2023-10-29T06:38:10.716Z,9.33
2023-10-29T06:40:37.175Z,9.35
2023-10-29T06:43:04.794Z,9.34
2023-10-29T06:45:31.363Z,9.39
2023-10-29T06:47:57.860Z,9.43
2023-10-29T06:50:24.503Z,9.51
2023-10-29T06:52:51.144Z,9.58
2023-10-29T06:55:17.658Z,9.63
2023-10-29T06:57:44.161Z,9.65
2023-10-29T07:00:11.833Z,9.72
2023-10-29T07:02:38.686Z,9.74
2023-10-29T07:05:05.620Z,9.77
2023-10-29T07:07:32.189Z,9.92
2023-10-29T07:09:58.681Z,9.99
2023-10-29T07:12:25.329Z,9.98
2023-10-29T07:14:52.193Z,10.10
2023-10-29T07:17:18.821Z,10.16
2023-10-29T07:19:45.460Z,10.18
2023-10-29T07:22:11.926Z,10.24
2023-10-29T07:24:39.103Z,10.32
2023-10-29T07:27:05.706Z,10.34
2023-10-29T07:29:32.428Z,10.38
2023-10-29T07:31:59.030Z,10.47
2023-10-29T07:34:25.552Z,10.49
2023-10-29T07:36:52.149Z,10.48
2023-10-29T07:39:18.784Z,10.50
2023-10-29T07:41:45.328Z,10.59
2023-10-29T07:44:12.406Z,10.65
2023-10-29T07:46:38.974Z,10.73
2023-10-29T07:49:05.534Z,10.77
2023-10-29T07:51:32.166Z,10.82
2023-10-29T07:54:00.825Z,10.97
2023-10-29T07:56:28.096Z,10.91
2023-10-29T07:58:54.813Z,11.00
2023-10-29T08:01:21.443Z,11.00
2023-10-29T08:03:49.751Z,11.12
2023-10-29T08:06:16.540Z,11.23
2023-10-29T08:08:43.147Z,11.30
2023-10-29T08:11:22.452Z,11.38
2023-10-29T08:13:49.547Z,11.46
2023-10-29T08:16:16.243Z,11.56
2023-10-29T08:18:42.922Z,11.57
2023-10-29T08:21:09.645Z,11.72
2023-10-29T08:23:36.615Z,11.84
2023-10-29T08:26:03.430Z,11.85
2023-10-29T08:28:31.093Z,11.98
2023-10-29T08:30:57.614Z,12.14
2023-10-29T08:33:24.225Z,12.05
2023-10-29T08:35:50.806Z,12.03
2023-10-29T08:38:17.294Z,12.33
2023-10-29T08:40:43.784Z,12.47
2023-10-29T08:43:10.363Z,12.58
2023-10-29T08:45:42.350Z,12.76
2023-10-29T08:48:09.706Z,12.85
2023-10-29T08:50:36.379Z,12.92
2023-10-29T08:53:02.998Z,12.92
2023-10-29T08:55:29.809Z,13.15
2023-10-29T08:57:56.328Z,13.31
2023-10-29T09:00:23.000Z,13.46
2023-10-29T09:02:49.670Z,13.35
2023-10-29T09:05:16.409Z,13.43
2023-10-29T09:07:43.014Z,13.66
2023-10-29T09:10:10.000Z,13.85
2023-10-29T09:12:36.614Z,14.19
2023-10-29T09:15:03.373Z,14.08
2023-10-29T09:17:30.089Z,14.25
2023-10-29T09:19:56.742Z,14.31
2023-10-29T09:22:23.257Z,14.68
2023-10-29T09:24:50.152Z,14.64
2023-10-29T09:27:16.706Z,14.88
2023-10-29T09:29:43.299Z,15.03
2023-10-29T09:32:09.910Z,14.95
2023-10-29T09:34:36.553Z,15.25
2023-10-29T09:37:03.081Z,15.25
2023-10-29T09:39:29.658Z,15.24
2023-10-29T09:42:02.505Z,15.37
2023-10-29T09:44:32.156Z,15.58
2023-10-29T09:47:14.115Z,15.84
2023-10-29T09:49:41.116Z,15.87
2023-10-29T09:52:09.198Z,15.75
2023-10-29T09:54:39.970Z,15.73
2023-10-29T09:57:07.559Z,15.77
2023-10-29T09:59:36.116Z,15.94
2023-10-29T10:02:03.741Z,16.04
2023-10-29T10:04:30.601Z,16.27
2023-10-29T10:06:59.883Z,16.36
2023-10-29T10:09:26.845Z,16.53
2023-10-29T10:12:05.462Z,16.63
2023-10-29T10:14:32.510Z,16.89
2023-10-29T10:17:11.928Z,16.84
2023-10-29T10:19:38.561Z,16.89
2023-10-29T10:22:05.468Z,17.17
2023-10-29T10:24:50.129Z,17.38
2023-10-29T10:27:16.777Z,17.23
2023-10-29T10:29:43.305Z,17.46
2023-10-29T10:32:10.128Z,17.66
2023-10-29T10:34:38.912Z,17.83
2023-10-29T10:37:05.682Z,17.66
2023-10-29T10:39:33.285Z,17.71
2023-10-29T10:42:01.815Z,17.71
2023-10-29T10:44:32.259Z,17.70
2023-10-29T10:47:03.619Z,17.76
2023-10-29T10:49:33.150Z,17.87
2023-10-29T10:52:02.632Z,17.86
2023-10-29T10:54:32.427Z,17.96
2023-10-29T10:57:00.618Z,18.17
2023-10-29T10:59:27.239Z,18.16
2023-10-29T11:01:54.975Z,18.16
2023-10-29T11:04:24.473Z,18.16
2023-10-29T11:06:52.873Z,18.44
2023-10-29T11:09:20.891Z,18.55
2023-10-29T11:11:54.493Z,18.54
2023-10-29T11:14:22.386Z,18.59
2023-10-29T11:17:07.929Z,18.62
2023-10-29T11:19:34.575Z,18.53
2023-10-29T11:22:16.061Z,18.61
2023-10-29T11:24:42.924Z,18.74
2023-10-29T11:27:37.707Z,18.58
2023-10-29T11:30:12.298Z,18.75
2023-10-29T11:32:40.117Z,18.73
2023-10-29T11:35:15.720Z,18.81
2023-10-29T11:37:45.800Z,18.97
2023-10-29T11:40:24.454Z,19.01
2023-10-29T11:42:54.330Z,18.78
2023-10-29T11:45:26.979Z,18.90
2023-10-29T11:48:11.250Z,18.92
2023-10-29T11:50:39.252Z,19.03
2023-10-29T11:53:06.213Z,19.04
2023-10-29T11:55:42.735Z,19.20
2023-10-29T11:58:09.351Z,19.42
2023-10-29T12:00:42.134Z,19.24
2023-10-29T12:03:15.177Z,19.27
2023-10-29T12:05:51.057Z,19.22
2023-10-29T12:08:17.967Z,19.11
2023-10-29T12:10:51.514Z,19.14
2023-10-29T12:13:19.932Z,19.24
2023-10-29T12:15:48.280Z,19.18
2023-10-29T12:18:24.820Z,19.29
2023-10-29T12:20:52.019Z,19.25
2023-10-29T12:23:18.931Z,19.35
2023-10-29T12:25:45.851Z,19.39
2023-10-29T12:28:14.671Z,19.48
2023-10-29T12:30:43.373Z,19.54
2023-10-29T12:33:17.970Z,19.36
2023-10-29T12:35:46.850Z,19.15
2023-10-29T12:38:13.654Z,19.25
2023-10-29T12:41:00.789Z,19.40
2023-10-29T12:43:44.731Z,19.34
2023-10-29T12:46:20.632Z,19.33
2023-10-29T12:49:11.143Z,19.16
2023-10-29T12:51:44.530Z,19.17
2023-10-29T12:54:21.064Z,19.24
2023-10-29T12:56:53.655Z,19.32
2023-10-29T12:59:21.833Z,19.36
2023-10-29T13:01:53.559Z,19.31
2023-10-29T13:04:21.737Z,19.32
2023-10-29T13:06:48.270Z,19.27
2023-10-29T13:09:19.221Z,19.21
2023-10-29T13:11:49.614Z,19.15
2023-10-29T13:14:16.246Z,19.23
2023-10-29T13:16:42.932Z,19.34
2023-10-29T13:19:09.808Z,19.39
2023-10-29T13:21:36.341Z,19.48
2023-10-29T13:24:02.950Z,19.50
2023-10-29T13:26:29.506Z,19.62
2023-10-29T13:28:56.841Z,19.73
2023-10-29T13:31:23.983Z,19.65
2023-10-29T13:33:50.858Z,19.64
2023-10-29T13:36:17.611Z,19.54
2023-10-29T13:38:44.147Z,19.44
2023-10-29T13:41:13.190Z,19.46
2023-10-29T13:43:39.893Z,19.36
2023-10-29T13:46:06.517Z,19.35
2023-10-29T13:48:33.168Z,19.35
2023-10-29T13:51:06.004Z,19.19
2023-10-29T13:53:33.893Z,19.09
2023-10-29T13:56:10.555Z,19.09
2023-10-29T13:58:37.745Z,18.99
2023-10-29T14:01:04.512Z,18.89
2023-10-29T14:03:32.579Z,18.88
2023-10-29T14:05:59.251Z,18.92
2023-10-29T14:08:25.841Z,18.89
2023-10-29T14:10:52.344Z,18.87
2023-10-29T14:13:18.926Z,18.93
2023-10-29T14:15:45.453Z,18.96
2023-10-29T14:18:12.001Z,18.98
2023-10-29T14:20:39.379Z,18.97
2023-10-29T14:23:05.952Z,18.95
2023-10-29T14:25:32.543Z,18.99
2023-10-29T14:28:02.120Z,18.91
2023-10-29T14:30:29.188Z,18.94
2023-10-29T14:32:55.954Z,18.84
2023-10-29T14:35:22.781Z,18.92
2023-10-29T14:37:53.098Z,18.89
2023-10-29T14:40:20.784Z,18.72
2023-10-29T14:42:50.452Z,18.52
2023-10-29T14:45:18.135Z,18.49
2023-10-29T14:47:45.153Z,18.39
2023-10-29T14:50:13.468Z,18.43
2023-10-29T14:52:41.355Z,18.23
2023-10-29T14:55:09.960Z,18.30
2023-10-29T14:57:38.509Z,18.00
2023-10-29T15:00:07.165Z,18.11
2023-10-29T15:02:34.144Z,18.01
2023-10-29T15:05:00.698Z,18.07
2023-10-29T15:07:28.114Z,18.00
2023-10-29T15:09:54.652Z,17.96
2023-10-29T15:12:21.173Z,17.83
2023-10-29T15:14:50.866Z,17.71
2023-10-29T15:17:19.179Z,17.88
2023-10-29T15:19:50.934Z,17.70
2023-10-29T15:22:17.563Z,17.80
2023-10-29T15:24:44.059Z,17.70
2023-10-29T15:27:10.550Z,17.62
2023-10-29T15:29:37.152Z,17.66
2023-10-29T15:32:04.071Z,17.64
2023-10-29T15:34:33.719Z,17.52
2023-10-29T15:37:00.209Z,17.44
2023-10-29T15:39:28.602Z,17.06
2023-10-29T15:41:55.118Z,17.14
2023-10-29T15:44:21.597Z,17.16
2023-10-29T15:46:48.943Z,17.01
2023-10-29T15:49:15.464Z,16.99
2023-10-29T15:51:42.038Z,16.85
2023-10-29T15:54:08.529Z,16.88
2023-10-29T15:56:37.742Z,16.84
2023-10-29T15:59:08.692Z,16.72
2023-10-29T16:01:37.000Z,16.72
2023-10-29T16:04:03.962Z,16.65
2023-10-29T16:06:30.501Z,16.51
2023-10-29T16:08:57.080Z,16.37
2023-10-29T16:11:25.308Z,16.44
2023-10-29T16:13:51.885Z,16.48
2023-10-29T16:16:18.621Z,16.48
2023-10-29T16:18:45.238Z,16.42
2023-10-29T16:21:12.000Z,16.14
2023-10-29T16:23:38.701Z,16.20
2023-10-29T16:26:05.413Z,16.33
2023-10-29T16:28:31.973Z,16.36
2023-10-29T16:30:58.442Z,16.29
2023-10-29T16:33:25.102Z,16.38
2023-10-29T16:35:54.294Z,16.35
2023-10-29T16:38:20.776Z,16.27
2023-10-29T16:40:49.080Z,16.18
2023-10-29T16:43:15.529Z,16.28
2023-10-29T16:45:43.828Z,16.26
2023-10-29T16:48:10.419Z,16.36
2023-10-29T16:50:52.406Z,16.28
2023-10-29T16:53:26.702Z,16.26
2023-10-29T16:55:53.190Z,16.20
2023-10-29T16:58:19.752Z,16.22
2023-10-29T17:00:49.358Z,16.22
2023-10-29T17:03:16.011Z,16.30
2023-10-29T17:05:42.698Z,16.32
2023-10-29T17:08:09.536Z,16.15
2023-10-29T17:10:39.355Z,16.32
2023-10-29T17:13:06.101Z,16.18
2023-10-29T17:15:32.594Z,16.26
2023-10-29T17:17:59.096Z,16.30
2023-10-29T17:20:25.856Z,16.38
2023-10-29T17:22:53.278Z,16.14
2023-10-29T17:25:19.838Z,16.37
2023-10-29T17:27:46.685Z,16.32
2023-10-29T17:30:14.054Z,16.33
2023-10-29T17:32:40.634Z,16.38
2023-10-29T17:35:08.090Z,16.31
2023-10-29T17:37:34.669Z,16.26
2023-10-29T17:40:01.142Z,16.25
2023-10-29T17:42:30.444Z,16.32
2023-10-29T17:44:57.081Z,16.26
2023-10-29T17:47:23.731Z,16.33
2023-10-29T17:49:50.230Z,16.15
2023-10-29T17:52:16.747Z,16.12
2023-10-29T17:54:43.919Z,16.06
2023-10-29T17:57:10.515Z,15.82
2023-10-29T17:59:39.425Z,15.89
2023-10-29T18:02:06.494Z,15.98
2023-10-29T18:04:33.074Z,15.94
2023-10-29T18:07:00.266Z,15.79
2023-10-29T18:09:27.398Z,15.88
2023-10-29T18:11:56.897Z,15.83
2023-10-29T18:14:24.416Z,15.90
2023-10-29T18:16:51.730Z,15.98
2023-10-29T18:19:18.366Z,16.02
2023-10-29T18:21:45.396Z,16.04
2023-10-29T18:24:12.994Z,15.99
2023-10-29T18:26:40.280Z,15.96
2023-10-29T18:29:06.869Z,15.96
2023-10-29T18:31:33.328Z,15.81
2023-10-29T18:33:59.877Z,15.74
2023-10-29T18:36:27.897Z,15.83
2023-10-29T18:39:00.182Z,15.64
2023-10-29T18:41:26.876Z,15.77
2023-10-29T18:43:55.824Z,15.85
2023-10-29T18:46:22.422Z,15.71
2023-10-29T18:48:49.088Z,15.65
2023-10-29T18:51:17.713Z,15.60
2023-10-29T18:53:45.746Z,15.59
2023-10-29T18:56:12.301Z,15.54
2023-10-29T18:58:41.738Z,15.59
2023-10-29T19:01:10.679Z,15.73
2023-10-29T19:03:37.537Z,15.79
2023-10-29T19:06:09.263Z,15.88
2023-10-29T19:08:39.058Z,15.80
2023-10-29T19:11:06.263Z,15.74
2023-10-29T19:13:36.113Z,15.75
2023-10-29T19:16:04.955Z,15.78
2023-10-29T19:18:32.248Z,15.77
2023-10-29T19:20:59.346Z,15.88
2023-10-29T19:23:26.293Z,15.90
2023-10-29T19:25:53.174Z,15.73
2023-10-29T19:28:19.714Z,15.76
2023-10-29T19:31:04.830Z,15.72
2023-10-29T19:33:34.065Z,15.81
2023-10-29T19:36:00.671Z,15.75
2023-10-29T19:38:27.315Z,15.55
2023-10-29T19:40:59.054Z,15.56
2023-10-29T19:43:25.687Z,15.51
2023-10-29T19:45:57.048Z,15.47
2023-10-29T19:48:24.918Z,15.48
2023-10-29T19:50:59.235Z,15.44
2023-10-29T19:53:30.176Z,15.51
2023-10-29T19:55:57.486Z,15.29
2023-10-29T19:58:24.680Z,15.46
2023-10-29T20:00:51.853Z,15.42
2023-10-29T20:03:19.076Z,15.34
2023-10-29T20:05:46.022Z,15.34
2023-10-29T20:08:12.760Z,15.22
2023-10-29T20:10:40.875Z,15.30
2023-10-29T20:13:07.690Z,15.30
2023-10-29T20:15:35.345Z,15.32
2023-10-29T20:18:03.027Z,15.38
2023-10-29T20:20:30.714Z,15.32
2023-10-29T20:22:58.105Z,15.30
2023-10-29T20:25:28.891Z,15.16
2023-10-29T20:27:56.108Z,15.24
2023-10-29T20:30:24.325Z,15.16
2023-10-29T20:32:51.465Z,15.22
2023-10-29T20:35:18.593Z,15.22
2023-10-29T20:37:45.154Z,15.22
2023-10-29T20:40:12.735Z,15.20
2023-10-29T20:42:39.243Z,15.19
2023-10-29T20:45:06.417Z,15.27
2023-10-29T20:47:32.945Z,15.29
2023-10-29T20:49:59.443Z,15.29
2023-10-29T20:52:26.014Z,15.35
2023-10-29T20:54:52.622Z,15.47
2023-10-29T20:57:19.228Z,15.34
2023-10-29T20:59:45.865Z,15.37
2023-10-29T21:02:12.475Z,15.35
2023-10-29T21:04:39.035Z,15.16
2023-10-29T21:07:05.608Z,15.27
2023-10-29T21:09:32.238Z,15.18
2023-10-29T21:11:58.894Z,15.18
2023-10-29T21:14:25.427Z,15.16
2023-10-29T21:16:51.875Z,15.07
2023-10-29T21:19:19.979Z,15.03
2023-10-29T21:21:48.506Z,15.11
2023-10-29T21:24:15.288Z,15.08
2023-10-29T21:26:41.860Z,15.05
2023-10-29T21:29:08.388Z,15.09
2023-10-29T21:31:34.916Z,15.24
2023-10-29T21:34:01.385Z,15.30
2023-10-29T21:36:27.968Z,14.93
2023-10-29T21:38:54.487Z,14.94
2023-10-29T21:41:23.340Z,14.96
2023-10-29T21:43:49.932Z,15.06
2023-10-29T21:46:16.541Z,15.05
2023-10-29T21:48:43.090Z,15.10
2023-10-29T21:51:09.669Z,15.06
2023-10-29T21:53:36.389Z,15.04
2023-10-29T21:56:06.119Z,15.01
2023-10-29T21:58:33.118Z,14.93
2023-10-29T22:00:59.689Z,14.87
2023-10-29T22:03:26.994Z,14.81
2023-10-29T22:06:00.685Z,14.66
2023-10-29T22:08:28.904Z,14.64
2023-10-29T22:10:59.462Z,14.66
2023-10-29T22:13:27.022Z,14.58
2023-10-29T22:15:54.061Z,14.58
2023-10-29T22:18:21.747Z,14.54
2023-10-29T22:20:48.654Z,14.44
2023-10-29T22:23:15.251Z,14.39
2023-10-29T22:25:41.782Z,14.56
2023-10-29T22:28:08.516Z,14.65
2023-10-29T22:30:36.552Z,14.67
2023-10-29T22:33:03.169Z,14.69
2023-10-29T22:35:29.745Z,14.73
2023-10-29T22:37:56.343Z,14.72
2023-10-29T22:40:22.835Z,14.82
2023-10-29T22:42:49.887Z,14.94
2023-10-29T22:45:17.157Z,14.77
2023-10-29T22:47:44.729Z,14.80
2023-10-29T22:50:11.365Z,14.83
2023-10-29T22:52:37.881Z,14.69
2023-10-29T22:55:04.833Z,14.78
2023-10-29T22:57:31.580Z,14.73
2023-10-29T22:59:58.200Z,14.62
2023-10-29T23:02:26.597Z,14.61
2023-10-29T23:04:55.190Z,14.72
2023-10-29T23:07:21.860Z,14.69
2023-10-29T23:09:48.511Z,14.53
2023-10-29T23:12:15.223Z,14.69
2023-10-29T23:14:41.804Z,14.67
2023-10-29T23:17:08.303Z,14.89
2023-10-29T23:19:35.209Z,14.68
2023-10-29T23:22:02.007Z,14.81
2023-10-29T23:24:28.535Z,14.80
2023-10-29T23:26:55.018Z,14.94
2023-10-29T23:29:21.482Z,14.92
2023-10-29T23:31:48.082Z,14.98
2023-10-29T23:34:14.739Z,14.93
2023-10-29T23:36:41.299Z,15.01
2023-10-29T23:39:07.838Z,14.94
2023-10-29T23:41:34.360Z,14.98
2023-10-29T23:44:00.812Z,14.97
2023-10-29T23:46:27.341Z,15.07
2023-10-29T23:48:53.894Z,14.78
2023-10-29T23:51:20.382Z,14.69
2023-10-29T23:53:46.936Z,14.66
2023-10-29T23:56:13.640Z,14.55
2023-10-29T23:58:40.088Z,14.66
